Oran, Argentina
Current Conditions -  °F | °C
As of 10:00 PM on Tuesday 21 Oct 2014 (Local Time) from SASJ Reporting Station
Clear Clear  
Wind Chill: 23°   Ceiling: Unl
Heat Index: 23°   Visibility: 6mi
Dew Point: 15°   Wind: 3mph
Humidity: 61%   Direction: 320°NW
Pressure: 30.09"   Gusts: NA
Location:  23.14°S, 64.32°W
Report Text: SASJ 220100Z 32003KT CAVOK 23/15 Q1019
Loading
Personal Weather Stations






























Interactive Weather Map
Tropical Storm Tracking
New forecast layout! Learn more

10-Day Weather Forecast

Advertisements
Track Severe Weather on mobile